sensor_id;sensor_type;location;lat;lon;timestamp;pressure;altitude;pressure_sealevel;temperature;humidity
21779;BME280;11050;52.222;20.916;2023-04-26T00:02:11;99325.34;;;8.28;100.00
21779;BME280;11050;52.222;20.916;2023-04-26T00:04:38;99320.72;;;8.29;100.00
21779;BME280;11050;52.222;20.916;2023-04-26T00:07:04;99325.63;;;8.27;100.00
21779;BME280;11050;52.222;20.916;2023-04-26T00:09:30;99334.34;;;8.24;100.00
21779;BME280;11050;52.222;20.916;2023-04-26T00:11:57;99338.13;;;8.18;100.00
21779;BME280;11050;52.222;20.916;2023-04-26T00:14:23;99344.41;;;8.18;100.00
21779;BME280;11050;52.222;20.916;2023-04-26T00:16:49;99353.44;;;8.19;100.00
21779;BME280;11050;52.222;20.916;2023-04-26T00:19:15;99351.81;;;8.18;100.00
21779;BME280;11050;52.222;20.916;2023-04-26T00:21:41;99357.00;;;8.19;100.00
21779;BME280;11050;52.222;20.916;2023-04-26T00:24:07;99351.50;;;8.14;100.00
21779;BME280;11050;52.222;20.916;2023-04-26T00:26:33;99362.19;;;8.16;100.00
21779;BME280;11050;52.222;20.916;2023-04-26T00:29:00;99361.91;;;8.17;100.00
21779;BME280;11050;52.222;20.916;2023-04-26T00:31:26;99366.06;;;8.20;100.00
21779;BME280;11050;52.222;20.916;2023-04-26T00:33:52;99366.81;;;8.15;100.00
21779;BME280;11050;52.222;20.916;2023-04-26T00:36:18;99364.63;;;8.12;100.00
21779;BME280;11050;52.222;20.916;2023-04-26T00:38:47;99370.13;;;8.17;100.00
21779;BME280;11050;52.222;20.916;2023-04-26T00:41:13;99370.97;;;8.18;100.00
21779;BME280;11050;52.222;20.916;2023-04-26T00:43:39;99378.34;;;8.17;100.00
21779;BME280;11050;52.222;20.916;2023-04-26T00:46:07;99378.06;;;8.19;100.00
21779;BME280;11050;52.222;20.916;2023-04-26T00:48:35;99381.91;;;8.18;100.00
21779;BME280;11050;52.222;20.916;2023-04-26T00:51:01;99385.22;;;8.20;100.00
21779;BME280;11050;52.222;20.916;2023-04-26T00:53:28;99375.34;;;8.19;100.00
21779;BME280;11050;52.222;20.916;2023-04-26T00:55:56;99383.59;;;8.24;100.00
21779;BME280;11050;52.222;20.916;2023-04-26T00:58:23;99385.28;;;8.25;100.00
21779;BME280;11050;52.222;20.916;2023-04-26T01:00:50;99388.84;;;8.25;100.00
21779;BME280;11050;52.222;20.916;2023-04-26T01:03:16;99386.91;;;8.26;100.00
21779;BME280;11050;52.222;20.916;2023-04-26T01:05:43;99379.78;;;8.25;100.00
21779;BME280;11050;52.222;20.916;2023-04-26T01:08:09;99373.69;;;8.18;100.00
21779;BME280;11050;52.222;20.916;2023-04-26T01:10:35;99389.63;;;8.26;100.00
21779;BME280;11050;52.222;20.916;2023-04-26T01:13:02;99377.22;;;8.18;100.00
21779;BME280;11050;52.222;20.916;2023-04-26T01:15:28;99392.59;;;8.19;100.00
21779;BME280;11050;52.222;20.916;2023-04-26T01:17:56;99392.31;;;8.21;100.00
21779;BME280;11050;52.222;20.916;2023-04-26T01:20:22;99396.72;;;8.22;100.00
21779;BME280;11050;52.222;20.916;2023-04-26T01:22:49;99401.09;;;8.23;100.00
21779;BME280;11050;52.222;20.916;2023-04-26T01:25:15;99402.69;;;8.19;100.00
21779;BME280;11050;52.222;20.916;2023-04-26T01:27:41;99398.88;;;8.20;100.00
21779;BME280;11050;52.222;20.916;2023-04-26T01:30:08;99399.47;;;8.22;100.00
21779;BME280;11050;52.222;20.916;2023-04-26T01:32:34;99395.88;;;8.21;100.00
21779;BME280;11050;52.222;20.916;2023-04-26T01:35:00;99402.41;;;8.15;100.00
21779;BME280;11050;52.222;20.916;2023-04-26T01:37:26;99407.84;;;8.10;100.00
21779;BME280;11050;52.222;20.916;2023-04-26T01:39:51;99403.69;;;8.08;100.00
21779;BME280;11050;52.222;20.916;2023-04-26T01:42:17;99400.38;;;8.06;100.00
21779;BME280;11050;52.222;20.916;2023-04-26T01:44:43;99403.16;;;8.11;100.00
21779;BME280;11050;52.222;20.916;2023-04-26T01:47:09;99388.88;;;8.04;100.00
21779;BME280;11050;52.222;20.916;2023-04-26T01:49:35;99395.22;;;8.09;100.00
21779;BME280;11050;52.222;20.916;2023-04-26T01:52:01;99393.88;;;8.12;100.00
21779;BME280;11050;52.222;20.916;2023-04-26T01:54:27;99397.47;;;8.12;100.00
21779;BME280;11050;52.222;20.916;2023-04-26T01:56:52;99399.88;;;8.09;100.00
21779;BME280;11050;52.222;20.916;2023-04-26T01:59:18;99386.41;;;8.02;100.00
21779;BME280;11050;52.222;20.916;2023-04-26T02:01:44;99402.56;;;8.04;100.00
21779;BME280;11050;52.222;20.916;2023-04-26T02:04:10;99400.91;;;8.03;100.00
21779;BME280;11050;52.222;20.916;2023-04-26T02:06:36;99390.97;;;7.92;100.00
21779;BME280;11050;52.222;20.916;2023-04-26T02:09:05;99403.34;;;7.99;100.00
21779;BME280;11050;52.222;20.916;2023-04-26T02:11:33;99413.47;;;7.99;100.00
21779;BME280;11050;52.222;20.916;2023-04-26T02:13:59;99405.75;;;7.96;100.00
21779;BME280;11050;52.222;20.916;2023-04-26T02:16:25;99417.53;;;7.96;100.00
21779;BME280;11050;52.222;20.916;2023-04-26T02:18:51;99412.31;;;7.95;100.00
21779;BME280;11050;52.222;20.916;2023-04-26T02:21:18;99415.91;;;7.95;100.00
21779;BME280;11050;52.222;20.916;2023-04-26T02:23:44;99410.69;;;7.94;100.00
21779;BME280;11050;52.222;20.916;2023-04-26T02:26:10;99411.78;;;7.98;100.00
21779;BME280;11050;52.222;20.916;2023-04-26T02:28:37;99416.69;;;7.96;100.00
21779;BME280;11050;52.222;20.916;2023-04-26T02:31:03;99406.81;;;7.90;100.00
21779;BME280;11050;52.222;20.916;2023-04-26T02:33:29;99422.44;;;7.94;100.00
21779;BME280;11050;52.222;20.916;2023-04-26T02:35:55;99413.16;;;7.95;100.00
21779;BME280;11050;52.222;20.916;2023-04-26T02:38:20;99397.47;;;7.86;100.00
21779;BME280;11050;52.222;20.916;2023-04-26T02:40:46;99399.09;;;7.87;100.00
21779;BME280;11050;52.222;20.916;2023-04-26T02:43:12;99411.19;;;7.91;100.00
21779;BME280;11050;52.222;20.916;2023-04-26T02:45:42;99405.59;;;7.81;100.00
21779;BME280;11050;52.222;20.916;2023-04-26T02:48:08;99410.31;;;7.85;100.00
21779;BME280;11050;52.222;20.916;2023-04-26T02:50:34;99402.81;;;7.76;100.00
21779;BME280;11050;52.222;20.916;2023-04-26T02:53:00;99406.41;;;7.76;100.00
21779;BME280;11050;52.222;20.916;2023-04-26T02:55:28;99416.47;;;7.71;100.00
21779;BME280;11050;52.222;20.916;2023-04-26T02:57:53;99416.91;;;7.62;100.00
21779;BME280;11050;52.222;20.916;2023-04-26T03:00:19;99416.84;;;7.57;100.00
21779;BME280;11050;52.222;20.916;2023-04-26T03:02:46;99415.88;;;7.47;100.00
21779;BME280;11050;52.222;20.916;2023-04-26T03:05:12;99416.09;;;7.40;100.00
21779;BME280;11050;52.222;20.916;2023-04-26T03:07:38;99419.00;;;7.34;100.00
21779;BME280;11050;52.222;20.916;2023-04-26T03:10:04;99424.03;;;7.20;100.00
21779;BME280;11050;52.222;20.916;2023-04-26T03:12:30;99419.81;;;7.13;100.00
21779;BME280;11050;52.222;20.916;2023-04-26T03:14:56;99416.41;;;7.01;100.00
21779;BME280;11050;52.222;20.916;2023-04-26T03:17:22;99424.75;;;6.94;100.00
21779;BME280;11050;52.222;20.916;2023-04-26T03:19:48;99412.81;;;6.79;100.00
21779;BME280;11050;52.222;20.916;2023-04-26T03:22:13;99410.75;;;6.69;100.00
21779;BME280;11050;52.222;20.916;2023-04-26T03:24:42;99418.88;;;6.64;100.00
21779;BME280;11050;52.222;20.916;2023-04-26T03:27:09;99417.06;;;6.53;100.00
21779;BME280;11050;52.222;20.916;2023-04-26T03:29:34;99419.66;;;6.43;100.00
21779;BME280;11050;52.222;20.916;2023-04-26T03:32:00;99431.38;;;6.43;100.00
21779;BME280;11050;52.222;20.916;2023-04-26T03:34:26;99435.91;;;6.38;100.00
21779;BME280;11050;52.222;20.916;2023-04-26T03:36:52;99441.28;;;6.33;100.00
21779;BME280;11050;52.222;20.916;2023-04-26T03:39:18;99437.56;;;6.22;100.00
21779;BME280;11050;52.222;20.916;2023-04-26T03:41:44;99438.63;;;6.21;100.00
21779;BME280;11050;52.222;20.916;2023-04-26T03:44:10;99437.56;;;6.22;100.00
21779;BME280;11050;52.222;20.916;2023-04-26T03:46:37;99430.59;;;6.15;100.00
21779;BME280;11050;52.222;20.916;2023-04-26T03:49:03;99422.53;;;6.03;100.00
21779;BME280;11050;52.222;20.916;2023-04-26T03:51:28;99442.84;;;6.12;100.00
21779;BME280;11050;52.222;20.916;2023-04-26T03:53:57;99441.69;;;6.08;100.00
21779;BME280;11050;52.222;20.916;2023-04-26T03:56:23;99443.00;;;6.06;100.00
21779;BME280;11050;52.222;20.916;2023-04-26T03:58:49;99442.91;;;6.01;100.00
21779;BME280;11050;52.222;20.916;2023-04-26T04:01:14;99455.63;;;5.95;100.00
21779;BME280;11050;52.222;20.916;2023-04-26T04:03:40;99448.03;;;5.97;100.00
21779;BME280;11050;52.222;20.916;2023-04-26T04:06:06;99453.63;;;5.91;100.00
21779;BME280;11050;52.222;20.916;2023-04-26T04:08:32;99452.31;;;5.93;100.00
21779;BME280;11050;52.222;20.916;2023-04-26T04:10:58;99451.97;;;5.90;100.00
21779;BME280;11050;52.222;20.916;2023-04-26T04:13:24;99437.78;;;5.76;100.00
21779;BME280;11050;52.222;20.916;2023-04-26T04:15:50;99454.38;;;5.86;100.00
21779;BME280;11050;52.222;20.916;2023-04-26T04:18:16;99447.00;;;5.87;100.00
21779;BME280;11050;52.222;20.916;2023-04-26T04:20:42;99460.75;;;5.92;100.00
21779;BME280;11050;52.222;20.916;2023-04-26T04:23:07;99457.44;;;5.90;100.00
21779;BME280;11050;52.222;20.916;2023-04-26T04:25:34;99449.50;;;5.88;100.00
21779;BME280;11050;52.222;20.916;2023-04-26T04:28:04;99448.50;;;5.94;100.00
21779;BME280;11050;52.222;20.916;2023-04-26T04:30:29;99463.91;;;6.00;100.00
21779;BME280;11050;52.222;20.916;2023-04-26T04:32:56;99445.06;;;5.99;100.00
21779;BME280;11050;52.222;20.916;2023-04-26T04:35:25;99464.09;;;6.10;100.00
21779;BME280;11050;52.222;20.916;2023-04-26T04:37:56;99472.59;;;6.14;100.00
21779;BME280;11050;52.222;20.916;2023-04-26T04:40:23;99464.94;;;6.11;100.00
21779;BME280;11050;52.222;20.916;2023-04-26T04:42:49;99465.59;;;6.18;100.00
21779;BME280;11050;52.222;20.916;2023-04-26T04:45:16;99479.16;;;6.13;100.00
21779;BME280;11050;52.222;20.916;2023-04-26T04:47:42;99469.28;;;6.12;100.00
21779;BME280;11050;52.222;20.916;2023-04-26T04:50:09;99466.91;;;6.15;100.00
21779;BME280;11050;52.222;20.916;2023-04-26T04:52:35;99472.69;;;6.19;100.00
21779;BME280;11050;52.222;20.916;2023-04-26T04:55:02;99482.63;;;6.25;100.00
21779;BME280;11050;52.222;20.916;2023-04-26T04:57:29;99486.25;;;6.30;100.00
21779;BME280;11050;52.222;20.916;2023-04-26T04:59:55;99495.03;;;6.32;100.00
21779;BME280;11050;52.222;20.916;2023-04-26T05:02:23;99479.88;;;6.25;100.00
21779;BME280;11050;52.222;20.916;2023-04-26T05:04:50;99490.81;;;6.25;100.00
21779;BME280;11050;52.222;20.916;2023-04-26T05:07:15;99488.31;;;6.23;100.00
21779;BME280;11050;52.222;20.916;2023-04-26T05:09:42;99504.44;;;6.25;100.00
21779;BME280;11050;52.222;20.916;2023-04-26T05:12:08;99506.13;;;6.26;100.00
21779;BME280;11050;52.222;20.916;2023-04-26T05:14:34;99507.81;;;6.15;100.00
21779;BME280;11050;52.222;20.916;2023-04-26T05:17:00;99504.38;;;6.20;100.00
21779;BME280;11050;52.222;20.916;2023-04-26T05:19:26;99508.91;;;6.14;100.00
21779;BME280;11050;52.222;20.916;2023-04-26T05:21:52;99502.53;;;6.09;100.00
21779;BME280;11050;52.222;20.916;2023-04-26T05:24:18;99502.75;;;6.07;100.00
21779;BME280;11050;52.222;20.916;2023-04-26T05:26:43;99515.16;;;6.15;100.00
21779;BME280;11050;52.222;20.916;2023-04-26T05:29:09;99511.56;;;6.26;100.00
21779;BME280;11050;52.222;20.916;2023-04-26T05:31:35;99524.91;;;6.39;100.00
21779;BME280;11050;52.222;20.916;2023-04-26T05:34:01;99514.06;;;6.44;100.00
21779;BME280;11050;52.222;20.916;2023-04-26T05:36:26;99523.75;;;6.68;100.00
21779;BME280;11050;52.222;20.916;2023-04-26T05:38:52;99505.81;;;6.72;100.00
21779;BME280;11050;52.222;20.916;2023-04-26T05:41:18;99515.91;;;6.71;100.00
21779;BME280;11050;52.222;20.916;2023-04-26T05:43:46;99521.22;;;6.78;100.00
21779;BME280;11050;52.222;20.916;2023-04-26T05:46:12;99528.63;;;6.83;100.00
21779;BME280;11050;52.222;20.916;2023-04-26T05:48:37;99526.47;;;6.85;100.00
21779;BME280;11050;52.222;20.916;2023-04-26T05:51:04;99525.25;;;6.92;100.00
21779;BME280;11050;52.222;20.916;2023-04-26T05:53:29;99529.56;;;7.05;100.00
21779;BME280;11050;52.222;20.916;2023-04-26T05:55:55;99525.00;;;7.10;100.00
21779;BME280;11050;52.222;20.916;2023-04-26T05:58:21;99522.91;;;7.17;100.00
21779;BME280;11050;52.222;20.916;2023-04-26T06:00:47;99529.47;;;7.16;100.00
21779;BME280;11050;52.222;20.916;2023-04-26T06:03:12;99521.97;;;7.28;100.00
21779;BME280;11050;52.222;20.916;2023-04-26T06:05:38;99525.75;;;7.44;100.00
21779;BME280;11050;52.222;20.916;2023-04-26T06:08:04;99534.59;;;7.51;100.00
21779;BME280;11050;52.222;20.916;2023-04-26T06:10:30;99534.69;;;7.56;100.00
21779;BME280;11050;52.222;20.916;2023-04-26T06:12:56;99532.63;;;7.68;100.00
21779;BME280;11050;52.222;20.916;2023-04-26T06:15:21;99536.25;;;7.74;100.00
21779;BME280;11050;52.222;20.916;2023-04-26T06:17:47;99527.47;;;7.72;100.00
21779;BME280;11050;52.222;20.916;2023-04-26T06:20:13;99543.00;;;7.88;100.00
21779;BME280;11050;52.222;20.916;2023-04-26T06:22:39;99526.28;;;7.84;99.96
21779;BME280;11050;52.222;20.916;2023-04-26T06:25:06;99545.84;;;7.98;98.43
21779;BME280;11050;52.222;20.916;2023-04-26T06:27:32;99521.88;;;8.05;98.76
21779;BME280;11050;52.222;20.916;2023-04-26T06:29:58;99531.53;;;8.12;98.44
21779;BME280;11050;52.222;20.916;2023-04-26T06:32:25;99539.22;;;8.15;96.30
21779;BME280;11050;52.222;20.916;2023-04-26T06:34:50;99536.03;;;8.23;97.24
21779;BME280;11050;52.222;20.916;2023-04-26T06:37:16;99532.53;;;8.28;95.65
21779;BME280;11050;52.222;20.916;2023-04-26T06:39:42;99527.63;;;8.30;95.60
21779;BME280;11050;52.222;20.916;2023-04-26T06:42:07;99539.25;;;8.42;94.99
21779;BME280;11050;52.222;20.916;2023-04-26T06:44:33;99528.94;;;8.49;92.68
21779;BME280;11050;52.222;20.916;2023-04-26T06:46:59;99560.28;;;8.63;88.80
21779;BME280;11050;52.222;20.916;2023-04-26T06:49:25;99547.41;;;8.63;83.56
21779;BME280;11050;52.222;20.916;2023-04-26T06:51:51;99568.53;;;8.68;81.97
21779;BME280;11050;52.222;20.916;2023-04-26T06:54:18;99554.28;;;8.66;82.16
21779;BME280;11050;52.222;20.916;2023-04-26T06:56:44;99554.97;;;8.78;81.97
21779;BME280;11050;52.222;20.916;2023-04-26T06:59:10;99543.56;;;8.91;80.93
21779;BME280;11050;52.222;20.916;2023-04-26T07:01:37;99542.53;;;9.02;80.70
21779;BME280;11050;52.222;20.916;2023-04-26T07:04:05;99552.50;;;9.13;78.85
21779;BME280;11050;52.222;20.916;2023-04-26T07:06:37;99552.56;;;9.23;78.57
21779;BME280;11050;52.222;20.916;2023-04-26T07:09:03;99550.69;;;9.29;78.03
21779;BME280;11050;52.222;20.916;2023-04-26T07:11:30;99559.31;;;9.47;76.28
21779;BME280;11050;52.222;20.916;2023-04-26T07:13:56;99558.00;;;9.60;74.76
21779;BME280;11050;52.222;20.916;2023-04-26T07:16:22;99558.41;;;9.84;74.30
21779;BME280;11050;52.222;20.916;2023-04-26T07:18:48;99564.53;;;10.01;71.66
21779;BME280;11050;52.222;20.916;2023-04-26T07:21:14;99557.66;;;10.03;69.80
21779;BME280;11050;52.222;20.916;2023-04-26T07:23:40;99559.69;;;10.18;70.45
21779;BME280;11050;52.222;20.916;2023-04-26T07:26:06;99550.69;;;10.37;69.58
21779;BME280;11050;52.222;20.916;2023-04-26T07:28:32;99553.75;;;10.46;68.55
21779;BME280;11050;52.222;20.916;2023-04-26T07:30:59;99560.88;;;10.42;67.38
21779;BME280;11050;52.222;20.916;2023-04-26T07:33:25;99557.28;;;10.36;68.25
21779;BME280;11050;52.222;20.916;2023-04-26T07:35:56;99580.94;;;10.52;64.59
21779;BME280;11050;52.222;20.916;2023-04-26T07:38:23;99577.38;;;10.62;61.45
21779;BME280;11050;52.222;20.916;2023-04-26T07:40:50;99571.59;;;10.54;59.92
21779;BME280;11050;52.222;20.916;2023-04-26T07:43:17;99585.91;;;10.61;60.82
21779;BME280;11050;52.222;20.916;2023-04-26T07:45:43;99576.84;;;10.75;61.14
21779;BME280;11050;52.222;20.916;2023-04-26T07:48:09;99598.59;;;11.07;61.38
21779;BME280;11050;52.222;20.916;2023-04-26T07:50:35;99587.34;;;11.08;59.55
21779;BME280;11050;52.222;20.916;2023-04-26T07:53:01;99589.28;;;11.03;60.24
21779;BME280;11050;52.222;20.916;2023-04-26T07:55:27;99595.03;;;10.96;60.01
21779;BME280;11050;52.222;20.916;2023-04-26T07:57:53;99595.84;;;11.22;59.77
21779;BME280;11050;52.222;20.916;2023-04-26T08:00:19;99606.31;;;11.40;58.12
21779;BME280;11050;52.222;20.916;2023-04-26T08:02:46;99592.56;;;11.30;57.89
21779;BME280;11050;52.222;20.916;2023-04-26T08:05:13;99585.41;;;11.04;58.81
21779;BME280;11050;52.222;20.916;2023-04-26T08:07:40;99599.13;;;10.89;57.88
21779;BME280;11050;52.222;20.916;2023-04-26T08:10:07;99598.59;;;10.87;59.81
21779;BME280;11050;52.222;20.916;2023-04-26T08:12:35;99594.19;;;10.96;59.96
21779;BME280;11050;52.222;20.916;2023-04-26T08:15:03;99606.03;;;10.96;59.19
21779;BME280;11050;52.222;20.916;2023-04-26T08:17:30;99597.53;;;11.03;59.24
21779;BME280;11050;52.222;20.916;2023-04-26T08:19:59;99595.03;;;11.52;59.36
21779;BME280;11050;52.222;20.916;2023-04-26T08:22:25;99603.78;;;11.79;58.49
21779;BME280;11050;52.222;20.916;2023-04-26T08:24:54;99610.69;;;11.76;56.95
21779;BME280;11050;52.222;20.916;2023-04-26T08:27:20;99594.72;;;11.58;57.14
21779;BME280;11050;52.222;20.916;2023-04-26T08:29:47;99597.50;;;11.43;57.76
21779;BME280;11050;52.222;20.916;2023-04-26T08:32:12;99594.47;;;11.29;57.74
21779;BME280;11050;52.222;20.916;2023-04-26T08:34:38;99602.19;;;11.27;59.47
21779;BME280;11050;52.222;20.916;2023-04-26T08:37:06;99589.53;;;11.67;55.36
21779;BME280;11050;52.222;20.916;2023-04-26T08:39:32;99589.22;;;11.73;54.01
21779;BME280;11050;52.222;20.916;2023-04-26T08:42:13;99590.59;;;11.61;55.39
21779;BME280;11050;52.222;20.916;2023-04-26T08:44:41;99601.59;;;11.61;55.24
21779;BME280;11050;52.222;20.916;2023-04-26T08:50:02;99606.03;;;11.36;55.55
21779;BME280;11050;52.222;20.916;2023-04-26T08:52:30;99607.13;;;11.20;57.34
21779;BME280;11050;52.222;20.916;2023-04-26T08:54:58;99599.69;;;11.11;57.07
21779;BME280;11050;52.222;20.916;2023-04-26T08:57:25;99613.44;;;10.96;58.08
21779;BME280;11050;52.222;20.916;2023-04-26T08:59:52;99622.25;;;10.93;58.56
21779;BME280;11050;52.222;20.916;2023-04-26T09:02:21;99614.81;;;10.88;57.08
21779;BME280;11050;52.222;20.916;2023-04-26T09:04:48;99642.91;;;11.25;54.17
21779;BME280;11050;52.222;20.916;2023-04-26T09:07:22;99633.28;;;11.23;55.27
21779;BME280;11050;52.222;20.916;2023-04-26T09:09:53;99610.44;;;11.22;54.44
21779;BME280;11050;52.222;20.916;2023-04-26T09:12:22;99633.53;;;11.21;54.66
21779;BME280;11050;52.222;20.916;2023-04-26T09:14:48;99630.50;;;11.13;55.25
21779;BME280;11050;52.222;20.916;2023-04-26T09:17:32;99631.03;;;11.00;54.41
21779;BME280;11050;52.222;20.916;2023-04-26T09:20:00;99637.34;;;10.85;56.08
21779;BME280;11050;52.222;20.916;2023-04-26T09:22:34;99640.34;;;10.74;57.04
21779;BME280;11050;52.222;20.916;2023-04-26T09:25:03;99637.31;;;10.75;57.46
21779;BME280;11050;52.222;20.916;2023-04-26T09:27:37;99648.91;;;10.82;58.45
21779;BME280;11050;52.222;20.916;2023-04-26T09:32:55;99644.53;;;11.11;52.38
21779;BME280;11050;52.222;20.916;2023-04-26T09:35:39;99652.53;;;11.23;51.80
21779;BME280;11050;52.222;20.916;2023-04-26T09:40:44;99644.00;;;11.39;50.50
21779;BME280;11050;52.222;20.916;2023-04-26T09:43:15;99610.97;;;11.09;50.95
21779;BME280;11050;52.222;20.916;2023-04-26T09:45:57;99639.06;;;11.21;50.32
21779;BME280;11050;52.222;20.916;2023-04-26T09:48:29;99644.28;;;11.18;50.71
21779;BME280;11050;52.222;20.916;2023-04-26T09:56:08;99648.94;;;11.22;45.85
21779;BME280;11050;52.222;20.916;2023-04-26T09:58:57;99656.66;;;11.45;45.33
21779;BME280;11050;52.222;20.916;2023-04-26T10:01:24;99648.94;;;11.78;44.85
21779;BME280;11050;52.222;20.916;2023-04-26T10:03:51;99646.41;;;12.11;44.13
21779;BME280;11050;52.222;20.916;2023-04-26T10:06:17;99644.31;;;12.57;41.09
21779;BME280;11050;52.222;20.916;2023-04-26T10:08:44;99637.38;;;12.60;42.26
21779;BME280;11050;52.222;20.916;2023-04-26T10:11:10;99646.84;;;12.44;41.69
21779;BME280;11050;52.222;20.916;2023-04-26T10:13:38;99646.91;;;12.18;43.24
21779;BME280;11050;52.222;20.916;2023-04-26T10:16:05;99650.31;;;11.95;42.54
21779;BME280;11050;52.222;20.916;2023-04-26T10:18:32;99642.03;;;11.90;40.01
21779;BME280;11050;52.222;20.916;2023-04-26T10:21:06;99658.00;;;11.98;39.46
21779;BME280;11050;52.222;20.916;2023-04-26T10:23:36;99649.97;;;12.17;37.58
21779;BME280;11050;52.222;20.916;2023-04-26T10:26:02;99646.91;;;12.28;38.90
21779;BME280;11050;52.222;20.916;2023-04-26T10:31:08;99644.91;;;12.39;38.08
21779;BME280;11050;52.222;20.916;2023-04-26T10:33:35;99640.31;;;12.14;38.49
21779;BME280;11050;52.222;20.916;2023-04-26T10:36:07;99651.66;;;11.98;38.76
21779;BME280;11050;52.222;20.916;2023-04-26T10:38:36;99653.34;;;11.84;40.28
21779;BME280;11050;52.222;20.916;2023-04-26T10:41:34;99672.03;;;11.92;40.58
21779;BME280;11050;52.222;20.916;2023-04-26T10:44:40;99656.09;;;11.79;42.26
21779;BME280;11050;52.222;20.916;2023-04-26T10:47:24;99666.84;;;11.85;42.40
21779;BME280;11050;52.222;20.916;2023-04-26T10:49:51;99668.19;;;11.98;42.17
21779;BME280;11050;52.222;20.916;2023-04-26T10:52:19;99671.78;;;11.98;42.45
21779;BME280;11050;52.222;20.916;2023-04-26T10:57:14;99668.38;;;12.31;41.87
21779;BME280;11050;52.222;20.916;2023-04-26T11:03:04;99687.84;;;12.55;38.79
21779;BME280;11050;52.222;20.916;2023-04-26T11:05:50;99685.47;;;12.28;39.69
21779;BME280;11050;52.222;20.916;2023-04-26T11:08:25;99682.22;;;12.11;41.14
21779;BME280;11050;52.222;20.916;2023-04-26T11:13:42;99694.09;;;11.72;41.04
21779;BME280;11050;52.222;20.916;2023-04-26T11:16:12;99701.78;;;11.34;42.01
21779;BME280;11050;52.222;20.916;2023-04-26T11:18:44;99696.25;;;11.29;41.85
21779;BME280;11050;52.222;20.916;2023-04-26T11:21:11;99690.22;;;11.27;41.84
21779;BME280;11050;52.222;20.916;2023-04-26T11:23:39;99690.47;;;11.41;41.35
21779;BME280;11050;52.222;20.916;2023-04-26T11:26:07;99696.59;;;11.68;40.56
21779;BME280;11050;52.222;20.916;2023-04-26T11:28:36;99709.78;;;11.96;40.49
21779;BME280;11050;52.222;20.916;2023-04-26T11:31:04;99709.16;;;12.29;40.15
21779;BME280;11050;52.222;20.916;2023-04-26T11:33:31;99715.47;;;12.30;40.96
21779;BME280;11050;52.222;20.916;2023-04-26T11:35:58;99704.19;;;12.31;41.93
21779;BME280;11050;52.222;20.916;2023-04-26T11:38:27;99701.16;;;12.33;41.99
21779;BME280;11050;52.222;20.916;2023-04-26T11:41:02;99701.72;;;12.30;41.58
21779;BME280;11050;52.222;20.916;2023-04-26T11:43:38;99703.94;;;12.23;41.44
21779;BME280;11050;52.222;20.916;2023-04-26T11:46:06;99721.53;;;12.32;41.04
21779;BME280;11050;52.222;20.916;2023-04-26T11:48:35;99689.88;;;12.24;41.88
21779;BME280;11050;52.222;20.916;2023-04-26T11:51:05;99714.13;;;12.22;40.85
21779;BME280;11050;52.222;20.916;2023-04-26T11:53:41;99722.97;;;12.09;41.29
21779;BME280;11050;52.222;20.916;2023-04-26T11:56:15;99713.66;;;11.85;41.42
21779;BME280;11050;52.222;20.916;2023-04-26T11:58:51;99700.44;;;11.72;42.94
21779;BME280;11050;52.222;20.916;2023-04-26T12:01:23;99701.78;;;11.85;42.40
21779;BME280;11050;52.222;20.916;2023-04-26T12:03:58;99712.81;;;11.95;41.86
21779;BME280;11050;52.222;20.916;2023-04-26T12:06:40;99720.19;;;12.24;40.22
21779;BME280;11050;52.222;20.916;2023-04-26T12:09:07;99710.75;;;12.46;39.50
21779;BME280;11050;52.222;20.916;2023-04-26T12:11:36;99718.91;;;12.76;40.19
21779;BME280;11050;52.222;20.916;2023-04-26T12:14:03;99717.41;;;13.08;38.03
21779;BME280;11050;52.222;20.916;2023-04-26T12:16:29;99716.75;;;13.99;35.92
21779;BME280;11050;52.222;20.916;2023-04-26T12:18:55;99716.13;;;14.59;34.68
21779;BME280;11050;52.222;20.916;2023-04-26T12:21:22;99713.28;;;14.64;35.18
21779;BME280;11050;52.222;20.916;2023-04-26T12:23:49;99711.41;;;14.36;35.17
21779;BME280;11050;52.222;20.916;2023-04-26T12:26:15;99728.16;;;13.54;36.88
21779;BME280;11050;52.222;20.916;2023-04-26T12:28:42;99739.50;;;13.03;37.28
21779;BME280;11050;52.222;20.916;2023-04-26T12:31:08;99761.41;;;12.60;37.76
21779;BME280;11050;52.222;20.916;2023-04-26T12:33:34;99726.56;;;12.10;39.23
21779;BME280;11050;52.222;20.916;2023-04-26T12:36:11;99725.47;;;12.06;39.94
21779;BME280;11050;52.222;20.916;2023-04-26T12:38:38;99735.34;;;12.17;38.91
21779;BME280;11050;52.222;20.916;2023-04-26T12:41:04;99729.25;;;12.35;37.87
21779;BME280;11050;52.222;20.916;2023-04-26T12:43:30;99728.31;;;12.70;37.77
21779;BME280;11050;52.222;20.916;2023-04-26T12:45:56;99734.47;;;13.15;35.63
21779;BME280;11050;52.222;20.916;2023-04-26T12:48:22;99732.66;;;14.07;34.32
21779;BME280;11050;52.222;20.916;2023-04-26T12:50:47;99768.00;;;14.44;32.51
21779;BME280;11050;52.222;20.916;2023-04-26T12:53:13;99781.78;;;14.15;31.93
21779;BME280;11050;52.222;20.916;2023-04-26T12:55:39;99739.50;;;13.47;33.35
21779;BME280;11050;52.222;20.916;2023-04-26T12:58:05;99761.59;;;12.93;35.36
21779;BME280;11050;52.222;20.916;2023-04-26T13:00:31;99761.38;;;12.75;36.77
21779;BME280;11050;52.222;20.916;2023-04-26T13:02:57;99772.47;;;12.55;36.80
21779;BME280;11050;52.222;20.916;2023-04-26T13:05:23;99740.03;;;12.26;37.97
21779;BME280;11050;52.222;20.916;2023-04-26T13:07:51;99764.00;;;12.21;39.12
21779;BME280;11050;52.222;20.916;2023-04-26T13:10:17;99766.19;;;12.09;39.75
21779;BME280;11050;52.222;20.916;2023-04-26T13:12:43;99765.09;;;12.05;40.63
21779;BME280;11050;52.222;20.916;2023-04-26T13:15:10;99763.44;;;12.24;40.69
21779;BME280;11050;52.222;20.916;2023-04-26T13:17:36;99763.38;;;12.49;37.03